sensor_id;sensor_type;location;lat;lon;timestamp;P1;durP1;ratioP1;P2;durP2;ratioP2
56670;SDS011;42545;50.054;8.306;2022-08-16T00:00:28;1.60;;;1.50;;
56670;SDS011;42545;50.054;8.306;2022-08-16T00:02:58;1.50;;;1.40;;
56670;SDS011;42545;50.054;8.306;2022-08-16T00:05:27;1.40;;;1.30;;
56670;SDS011;42545;50.054;8.306;2022-08-16T00:07:55;1.48;;;1.38;;
56670;SDS011;42545;50.054;8.306;2022-08-16T00:10:23;2.22;;;1.60;;
56670;SDS011;42545;50.054;8.306;2022-08-16T00:12:51;1.65;;;1.42;;
56670;SDS011;42545;50.054;8.306;2022-08-16T00:15:19;1.73;;;1.52;;
56670;SDS011;42545;50.054;8.306;2022-08-16T00:17:49;2.33;;;2.03;;
56670;SDS011;42545;50.054;8.306;2022-08-16T00:20:19;2.30;;;2.00;;
56670;SDS011;42545;50.054;8.306;2022-08-16T00:22:49;2.22;;;1.80;;
56670;SDS011;42545;50.054;8.306;2022-08-16T00:25:17;2.10;;;1.80;;
56670;SDS011;42545;50.054;8.306;2022-08-16T00:27:45;2.00;;;1.70;;
56670;SDS011;42545;50.054;8.306;2022-08-16T00:30:12;1.90;;;1.60;;
56670;SDS011;42545;50.054;8.306;2022-08-16T00:32:41;1.85;;;1.63;;
56670;SDS011;42545;50.054;8.306;2022-08-16T00:35:11;1.90;;;1.55;;
56670;SDS011;42545;50.054;8.306;2022-08-16T00:37:39;2.20;;;1.65;;
56670;SDS011;42545;50.054;8.306;2022-08-16T00:40:08;2.17;;;1.98;;
56670;SDS011;42545;50.054;8.306;2022-08-16T00:45:05;2.40;;;2.00;;
56670;SDS011;42545;50.054;8.306;2022-08-16T00:47:38;2.42;;;1.85;;
56670;SDS011;42545;50.054;8.306;2022-08-16T00:50:09;1.90;;;1.70;;
56670;SDS011;42545;50.054;8.306;2022-08-16T00:52:38;1.87;;;1.77;;
56670;SDS011;42545;50.054;8.306;2022-08-16T00:55:08;1.98;;;1.77;;
56670;SDS011;42545;50.054;8.306;2022-08-16T00:57:35;2.55;;;1.95;;
56670;SDS011;42545;50.054;8.306;2022-08-16T01:00:04;2.20;;;1.98;;
56670;SDS011;42545;50.054;8.306;2022-08-16T01:02:31;2.25;;;2.05;;
56670;SDS011;42545;50.054;8.306;2022-08-16T01:04:58;1.90;;;1.80;;
56670;SDS011;42545;50.054;8.306;2022-08-16T01:07:25;2.38;;;1.98;;
56670;SDS011;42545;50.054;8.306;2022-08-16T01:09:53;2.10;;;1.90;;
56670;SDS011;42545;50.054;8.306;2022-08-16T01:12:21;2.20;;;2.00;;
56670;SDS011;42545;50.054;8.306;2022-08-16T01:14:49;2.00;;;1.80;;
56670;SDS011;42545;50.054;8.306;2022-08-16T01:17:20;1.60;;;1.50;;
56670;SDS011;42545;50.054;8.306;2022-08-16T01:19:49;1.90;;;1.50;;
56670;SDS011;42545;50.054;8.306;2022-08-16T01:22:24;2.05;;;1.50;;
56670;SDS011;42545;50.054;8.306;2022-08-16T01:24:58;2.03;;;1.63;;
56670;SDS011;42545;50.054;8.306;2022-08-16T01:27:30;1.95;;;1.70;;
56670;SDS011;42545;50.054;8.306;2022-08-16T01:30:01;1.77;;;1.50;;
56670;SDS011;42545;50.054;8.306;2022-08-16T01:32:33;1.90;;;1.70;;
56670;SDS011;42545;50.054;8.306;2022-08-16T01:35:04;1.92;;;1.80;;
56670;SDS011;42545;50.054;8.306;2022-08-16T01:37:37;2.40;;;1.98;;
56670;SDS011;42545;50.054;8.306;2022-08-16T01:40:08;1.80;;;1.70;;
56670;SDS011;42545;50.054;8.306;2022-08-16T01:42:36;2.30;;;2.10;;
56670;SDS011;42545;50.054;8.306;2022-08-16T01:45:03;1.70;;;1.50;;
56670;SDS011;42545;50.054;8.306;2022-08-16T01:47:30;2.03;;;1.75;;
56670;SDS011;42545;50.054;8.306;2022-08-16T01:50:00;1.90;;;1.63;;
56670;SDS011;42545;50.054;8.306;2022-08-16T01:52:28;1.48;;;1.38;;
56670;SDS011;42545;50.054;8.306;2022-08-16T01:54:56;1.95;;;1.60;;
56670;SDS011;42545;50.054;8.306;2022-08-16T01:57:25;1.95;;;1.63;;
56670;SDS011;42545;50.054;8.306;2022-08-16T01:59:52;1.70;;;1.52;;
56670;SDS011;42545;50.054;8.306;2022-08-16T02:02:20;1.40;;;1.30;;
56670;SDS011;42545;50.054;8.306;2022-08-16T02:04:48;1.73;;;1.63;;
56670;SDS011;42545;50.054;8.306;2022-08-16T02:07:14;1.60;;;1.50;;
56670;SDS011;42545;50.054;8.306;2022-08-16T02:09:42;1.90;;;1.80;;
56670;SDS011;42545;50.054;8.306;2022-08-16T02:12:10;1.85;;;1.73;;
56670;SDS011;42545;50.054;8.306;2022-08-16T02:14:40;1.77;;;1.67;;
56670;SDS011;42545;50.054;8.306;2022-08-16T02:17:09;1.80;;;1.70;;
56670;SDS011;42545;50.054;8.306;2022-08-16T02:19:40;2.20;;;2.00;;
56670;SDS011;42545;50.054;8.306;2022-08-16T02:22:09;1.95;;;1.73;;
56670;SDS011;42545;50.054;8.306;2022-08-16T02:24:40;2.08;;;1.88;;
56670;SDS011;42545;50.054;8.306;2022-08-16T02:27:08;1.93;;;1.60;;
56670;SDS011;42545;50.054;8.306;2022-08-16T02:29:36;1.80;;;1.70;;
56670;SDS011;42545;50.054;8.306;2022-08-16T02:32:06;2.28;;;1.80;;
56670;SDS011;42545;50.054;8.306;2022-08-16T02:37:00;2.10;;;1.90;;
56670;SDS011;42545;50.054;8.306;2022-08-16T02:39:27;2.28;;;2.08;;
56670;SDS011;42545;50.054;8.306;2022-08-16T02:41:58;2.22;;;2.00;;
56670;SDS011;42545;50.054;8.306;2022-08-16T02:44:25;1.95;;;1.70;;
56670;SDS011;42545;50.054;8.306;2022-08-16T02:46:52;2.08;;;1.88;;
56670;SDS011;42545;50.054;8.306;2022-08-16T02:49:20;2.17;;;1.98;;
56670;SDS011;42545;50.054;8.306;2022-08-16T02:51:48;2.22;;;1.70;;
56670;SDS011;42545;50.054;8.306;2022-08-16T02:54:14;1.90;;;1.70;;
56670;SDS011;42545;50.054;8.306;2022-08-16T02:56:41;2.17;;;1.98;;
56670;SDS011;42545;50.054;8.306;2022-08-16T02:59:08;1.60;;;1.50;;
56670;SDS011;42545;50.054;8.306;2022-08-16T03:01:36;1.83;;;1.70;;
56670;SDS011;42545;50.054;8.306;2022-08-16T03:04:03;2.10;;;1.80;;
56670;SDS011;42545;50.054;8.306;2022-08-16T03:06:33;1.73;;;1.63;;
56670;SDS011;42545;50.054;8.306;2022-08-16T03:09:02;1.70;;;1.60;;
56670;SDS011;42545;50.054;8.306;2022-08-16T03:11:29;1.95;;;1.45;;
56670;SDS011;42545;50.054;8.306;2022-08-16T03:13:57;1.83;;;1.70;;
56670;SDS011;42545;50.054;8.306;2022-08-16T03:16:24;1.80;;;1.70;;
56670;SDS011;42545;50.054;8.306;2022-08-16T03:18:52;1.50;;;1.40;;
56670;SDS011;42545;50.054;8.306;2022-08-16T03:21:20;2.00;;;1.45;;
56670;SDS011;42545;50.054;8.306;2022-08-16T03:23:49;1.83;;;1.58;;
56670;SDS011;42545;50.054;8.306;2022-08-16T03:26:16;1.77;;;1.67;;
56670;SDS011;42545;50.054;8.306;2022-08-16T03:28:44;1.45;;;1.30;;
56670;SDS011;42545;50.054;8.306;2022-08-16T03:31:12;1.55;;;1.45;;
56670;SDS011;42545;50.054;8.306;2022-08-16T03:33:38;1.80;;;1.70;;
56670;SDS011;42545;50.054;8.306;2022-08-16T03:36:05;2.20;;;1.80;;
56670;SDS011;42545;50.054;8.306;2022-08-16T03:38:33;1.52;;;1.42;;
56670;SDS011;42545;50.054;8.306;2022-08-16T03:41:03;2.42;;;1.50;;
56670;SDS011;42545;50.054;8.306;2022-08-16T03:45:59;1.90;;;1.55;;
56670;SDS011;42545;50.054;8.306;2022-08-16T03:48:27;1.58;;;1.40;;
56670;SDS011;42545;50.054;8.306;2022-08-16T03:51:06;1.70;;;1.60;;
56670;SDS011;42545;50.054;8.306;2022-08-16T03:53:35;1.60;;;1.50;;
56670;SDS011;42545;50.054;8.306;2022-08-16T03:56:05;2.03;;;1.83;;
56670;SDS011;42545;50.054;8.306;2022-08-16T03:58:33;2.03;;;1.83;;
56670;SDS011;42545;50.054;8.306;2022-08-16T04:01:00;1.70;;;1.60;;
56670;SDS011;42545;50.054;8.306;2022-08-16T04:03:27;3.10;;;2.10;;
56670;SDS011;42545;50.054;8.306;2022-08-16T04:05:56;2.03;;;1.83;;
56670;SDS011;42545;50.054;8.306;2022-08-16T04:08:23;1.85;;;1.73;;
56670;SDS011;42545;50.054;8.306;2022-08-16T04:10:51;2.25;;;1.92;;
56670;SDS011;42545;50.054;8.306;2022-08-16T04:13:21;1.90;;;1.70;;
56670;SDS011;42545;50.054;8.306;2022-08-16T04:15:49;2.35;;;1.75;;
56670;SDS011;42545;50.054;8.306;2022-08-16T04:18:17;2.20;;;2.00;;
56670;SDS011;42545;50.054;8.306;2022-08-16T04:20:48;1.90;;;1.70;;
56670;SDS011;42545;50.054;8.306;2022-08-16T04:23:15;1.77;;;1.60;;
56670;SDS011;42545;50.054;8.306;2022-08-16T04:25:41;1.90;;;1.80;;
56670;SDS011;42545;50.054;8.306;2022-08-16T04:28:08;1.98;;;1.63;;
56670;SDS011;42545;50.054;8.306;2022-08-16T04:30:38;2.10;;;1.90;;
56670;SDS011;42545;50.054;8.306;2022-08-16T04:33:05;1.92;;;1.70;;
56670;SDS011;42545;50.054;8.306;2022-08-16T04:35:32;2.25;;;1.95;;
56670;SDS011;42545;50.054;8.306;2022-08-16T04:38:00;2.22;;;2.03;;
56670;SDS011;42545;50.054;8.306;2022-08-16T04:40:27;2.40;;;1.88;;
56670;SDS011;42545;50.054;8.306;2022-08-16T04:42:54;2.17;;;1.83;;
56670;SDS011;42545;50.054;8.306;2022-08-16T04:45:22;2.40;;;2.20;;
56670;SDS011;42545;50.054;8.306;2022-08-16T04:47:51;2.75;;;2.50;;
56670;SDS011;42545;50.054;8.306;2022-08-16T04:50:20;2.83;;;2.55;;
56670;SDS011;42545;50.054;8.306;2022-08-16T04:52:49;2.42;;;2.22;;
56670;SDS011;42545;50.054;8.306;2022-08-16T04:55:18;3.10;;;2.65;;
56670;SDS011;42545;50.054;8.306;2022-08-16T04:57:48;4.30;;;3.63;;
56670;SDS011;42545;50.054;8.306;2022-08-16T05:00:18;4.28;;;3.20;;
56670;SDS011;42545;50.054;8.306;2022-08-16T05:02:48;4.28;;;3.30;;
56670;SDS011;42545;50.054;8.306;2022-08-16T05:05:17;3.78;;;3.33;;
56670;SDS011;42545;50.054;8.306;2022-08-16T05:07:44;3.65;;;2.83;;
56670;SDS011;42545;50.054;8.306;2022-08-16T05:10:11;3.03;;;2.70;;
56670;SDS011;42545;50.054;8.306;2022-08-16T05:12:38;2.85;;;2.58;;
56670;SDS011;42545;50.054;8.306;2022-08-16T05:15:05;2.58;;;2.10;;
56670;SDS011;42545;50.054;8.306;2022-08-16T05:17:34;2.00;;;1.80;;
56670;SDS011;42545;50.054;8.306;2022-08-16T05:20:05;1.95;;;1.75;;
56670;SDS011;42545;50.054;8.306;2022-08-16T05:22:35;2.13;;;1.90;;
56670;SDS011;42545;50.054;8.306;2022-08-16T05:25:03;2.35;;;2.13;;
56670;SDS011;42545;50.054;8.306;2022-08-16T05:27:31;4.45;;;3.97;;
56670;SDS011;42545;50.054;8.306;2022-08-16T05:29:58;3.45;;;3.03;;
56670;SDS011;42545;50.054;8.306;2022-08-16T05:32:24;3.45;;;3.10;;
56670;SDS011;42545;50.054;8.306;2022-08-16T05:34:51;3.90;;;3.15;;
56670;SDS011;42545;50.054;8.306;2022-08-16T05:37:19;3.90;;;3.40;;
56670;SDS011;42545;50.054;8.306;2022-08-16T05:39:48;3.72;;;3.00;;
56670;SDS011;42545;50.054;8.306;2022-08-16T05:42:15;4.28;;;3.88;;
56670;SDS011;42545;50.054;8.306;2022-08-16T05:44:42;4.07;;;3.67;;
56670;SDS011;42545;50.054;8.306;2022-08-16T05:47:09;5.00;;;4.40;;
56670;SDS011;42545;50.054;8.306;2022-08-16T05:49:35;4.68;;;4.05;;
56670;SDS011;42545;50.054;8.306;2022-08-16T05:52:02;7.63;;;5.43;;
56670;SDS011;42545;50.054;8.306;2022-08-16T05:54:30;6.47;;;5.35;;
56670;SDS011;42545;50.054;8.306;2022-08-16T05:56:58;6.10;;;4.70;;
56670;SDS011;42545;50.054;8.306;2022-08-16T05:59:26;6.78;;;5.85;;
56670;SDS011;42545;50.054;8.306;2022-08-16T06:01:52;4.43;;;4.03;;
56670;SDS011;42545;50.054;8.306;2022-08-16T06:04:20;4.30;;;3.83;;
56670;SDS011;42545;50.054;8.306;2022-08-16T06:06:48;7.43;;;6.65;;
56670;SDS011;42545;50.054;8.306;2022-08-16T06:09:16;7.90;;;7.10;;
56670;SDS011;42545;50.054;8.306;2022-08-16T06:11:44;8.45;;;6.72;;
56670;SDS011;42545;50.054;8.306;2022-08-16T06:14:14;8.27;;;6.82;;
56670;SDS011;42545;50.054;8.306;2022-08-16T06:16:40;6.78;;;5.25;;
56670;SDS011;42545;50.054;8.306;2022-08-16T06:19:07;12.00;;;8.02;;
56670;SDS011;42545;50.054;8.306;2022-08-16T06:21:34;10.23;;;7.97;;
56670;SDS011;42545;50.054;8.306;2022-08-16T06:24:01;7.05;;;6.18;;
56670;SDS011;42545;50.054;8.306;2022-08-16T06:26:28;9.50;;;7.28;;
56670;SDS011;42545;50.054;8.306;2022-08-16T06:28:55;8.60;;;5.82;;
56670;SDS011;42545;50.054;8.306;2022-08-16T06:31:24;5.90;;;5.18;;
56670;SDS011;42545;50.054;8.306;2022-08-16T06:33:51;6.45;;;5.78;;
56670;SDS011;42545;50.054;8.306;2022-08-16T06:36:19;5.28;;;4.28;;
56670;SDS011;42545;50.054;8.306;2022-08-16T06:38:48;6.90;;;5.32;;
56670;SDS011;42545;50.054;8.306;2022-08-16T06:41:15;11.40;;;7.68;;
56670;SDS011;42545;50.054;8.306;2022-08-16T06:43:41;7.80;;;6.25;;
56670;SDS011;42545;50.054;8.306;2022-08-16T06:48:49;12.60;;;8.68;;
56670;SDS011;42545;50.054;8.306;2022-08-16T06:51:16;13.75;;;9.43;;
56670;SDS011;42545;50.054;8.306;2022-08-16T06:53:43;7.65;;;5.72;;
56670;SDS011;42545;50.054;8.306;2022-08-16T06:56:09;17.90;;;10.57;;
56670;SDS011;42545;50.054;8.306;2022-08-16T06:58:37;17.02;;;10.02;;
56670;SDS011;42545;50.054;8.306;2022-08-16T07:01:04;10.25;;;6.20;;
56670;SDS011;42545;50.054;8.306;2022-08-16T07:03:31;7.40;;;5.88;;
56670;SDS011;42545;50.054;8.306;2022-08-16T07:05:59;12.48;;;8.13;;
56670;SDS011;42545;50.054;8.306;2022-08-16T07:08:28;9.90;;;6.22;;
56670;SDS011;42545;50.054;8.306;2022-08-16T07:10:55;7.07;;;5.18;;
56670;SDS011;42545;50.054;8.306;2022-08-16T07:13:24;19.60;;;9.88;;
56670;SDS011;42545;50.054;8.306;2022-08-16T07:15:51;7.10;;;5.72;;
56670;SDS011;42545;50.054;8.306;2022-08-16T07:18:18;12.80;;;8.70;;
56670;SDS011;42545;50.054;8.306;2022-08-16T07:20:46;11.73;;;7.82;;
56670;SDS011;42545;50.054;8.306;2022-08-16T07:23:14;7.90;;;5.90;;
56670;SDS011;42545;50.054;8.306;2022-08-16T07:25:42;10.70;;;7.57;;
56670;SDS011;42545;50.054;8.306;2022-08-16T07:28:10;9.60;;;7.22;;
56670;SDS011;42545;50.054;8.306;2022-08-16T07:30:39;9.20;;;6.10;;
56670;SDS011;42545;50.054;8.306;2022-08-16T07:33:07;10.18;;;5.95;;
56670;SDS011;42545;50.054;8.306;2022-08-16T07:35:34;8.73;;;6.43;;
56670;SDS011;42545;50.054;8.306;2022-08-16T07:38:02;7.95;;;6.40;;
56670;SDS011;42545;50.054;8.306;2022-08-16T07:40:32;14.65;;;7.65;;
56670;SDS011;42545;50.054;8.306;2022-08-16T07:43:00;8.00;;;4.80;;
56670;SDS011;42545;50.054;8.306;2022-08-16T07:45:29;5.13;;;4.15;;
56670;SDS011;42545;50.054;8.306;2022-08-16T07:48:11;8.52;;;6.57;;
56670;SDS011;42545;50.054;8.306;2022-08-16T07:50:39;7.35;;;4.88;;
56670;SDS011;42545;50.054;8.306;2022-08-16T07:53:06;13.70;;;8.40;;
56670;SDS011;42545;50.054;8.306;2022-08-16T07:55:36;6.40;;;5.03;;
56670;SDS011;42545;50.054;8.306;2022-08-16T07:58:03;4.78;;;4.28;;
56670;SDS011;42545;50.054;8.306;2022-08-16T08:00:30;7.22;;;5.13;;
56670;SDS011;42545;50.054;8.306;2022-08-16T08:02:57;7.50;;;6.75;;
56670;SDS011;42545;50.054;8.306;2022-08-16T08:05:26;6.90;;;6.10;;
56670;SDS011;42545;50.054;8.306;2022-08-16T08:07:54;4.85;;;4.35;;
56670;SDS011;42545;50.054;8.306;2022-08-16T08:10:23;5.60;;;4.65;;
56670;SDS011;42545;50.054;8.306;2022-08-16T08:12:52;5.22;;;4.72;;
56670;SDS011;42545;50.054;8.306;2022-08-16T08:15:21;4.95;;;4.22;;
56670;SDS011;42545;50.054;8.306;2022-08-16T08:17:49;8.77;;;5.63;;
56670;SDS011;42545;50.054;8.306;2022-08-16T08:20:20;6.32;;;5.60;;
56670;SDS011;42545;50.054;8.306;2022-08-16T08:22:51;6.95;;;5.18;;
56670;SDS011;42545;50.054;8.306;2022-08-16T08:25:19;6.97;;;5.88;;
56670;SDS011;42545;50.054;8.306;2022-08-16T08:27:49;7.05;;;4.82;;
56670;SDS011;42545;50.054;8.306;2022-08-16T08:30:17;7.60;;;5.75;;
56670;SDS011;42545;50.054;8.306;2022-08-16T08:32:44;4.65;;;4.22;;
56670;SDS011;42545;50.054;8.306;2022-08-16T08:35:11;8.13;;;4.55;;
56670;SDS011;42545;50.054;8.306;2022-08-16T08:37:38;7.00;;;4.80;;
56670;SDS011;42545;50.054;8.306;2022-08-16T08:40:07;4.47;;;4.07;;
56670;SDS011;42545;50.054;8.306;2022-08-16T08:42:37;7.05;;;6.10;;
56670;SDS011;42545;50.054;8.306;2022-08-16T08:45:09;6.82;;;5.25;;
56670;SDS011;42545;50.054;8.306;2022-08-16T08:47:41;4.75;;;3.78;;
56670;SDS011;42545;50.054;8.306;2022-08-16T08:50:10;6.82;;;5.03;;
56670;SDS011;42545;50.054;8.306;2022-08-16T08:52:40;4.47;;;4.07;;
56670;SDS011;42545;50.054;8.306;2022-08-16T08:55:09;4.75;;;4.30;;
56670;SDS011;42545;50.054;8.306;2022-08-16T08:57:39;10.30;;;5.50;;
56670;SDS011;42545;50.054;8.306;2022-08-16T09:00:07;5.13;;;4.18;;
56670;SDS011;42545;50.054;8.306;2022-08-16T09:02:36;5.55;;;4.35;;
56670;SDS011;42545;50.054;8.306;2022-08-16T09:05:06;9.25;;;5.10;;
56670;SDS011;42545;50.054;8.306;2022-08-16T09:07:34;7.40;;;4.93;;
56670;SDS011;42545;50.054;8.306;2022-08-16T09:10:02;7.30;;;5.38;;
56670;SDS011;42545;50.054;8.306;2022-08-16T09:12:36;4.50;;;4.10;;
56670;SDS011;42545;50.054;8.306;2022-08-16T09:15:04;5.78;;;4.85;;
56670;SDS011;42545;50.054;8.306;2022-08-16T09:17:36;6.18;;;5.07;;
56670;SDS011;42545;50.054;8.306;2022-08-16T09:20:10;5.85;;;4.30;;
56670;SDS011;42545;50.054;8.306;2022-08-16T09:22:39;5.75;;;4.53;;
56670;SDS011;42545;50.054;8.306;2022-08-16T09:25:07;6.80;;;5.40;;
56670;SDS011;42545;50.054;8.306;2022-08-16T09:27:35;5.43;;;4.63;;
56670;SDS011;42545;50.054;8.306;2022-08-16T09:30:02;6.63;;;4.55;;
56670;SDS011;42545;50.054;8.306;2022-08-16T09:32:32;5.45;;;4.05;;
56670;SDS011;42545;50.054;8.306;2022-08-16T09:34:59;5.03;;;4.35;;
56670;SDS011;42545;50.054;8.306;2022-08-16T09:37:28;3.72;;;3.42;;
56670;SDS011;42545;50.054;8.306;2022-08-16T09:39:57;4.32;;;3.92;;
56670;SDS011;42545;50.054;8.306;2022-08-16T09:42:25;3.63;;;3.30;;
56670;SDS011;42545;50.054;8.306;2022-08-16T09:44:52;8.02;;;4.60;;
56670;SDS011;42545;50.054;8.306;2022-08-16T09:47:23;7.55;;;4.68;;
56670;SDS011;42545;50.054;8.306;2022-08-16T09:49:52;4.55;;;4.13;;
56670;SDS011;42545;50.054;8.306;2022-08-16T09:52:20;6.03;;;4.13;;
56670;SDS011;42545;50.054;8.306;2022-08-16T09:54:48;4.93;;;4.10;;
56670;SDS011;42545;50.054;8.306;2022-08-16T09:57:15;6.38;;;4.70;;
56670;SDS011;42545;50.054;8.306;2022-08-16T09:59:45;4.85;;;4.35;;
56670;SDS011;42545;50.054;8.306;2022-08-16T10:02:12;4.97;;;4.47;;
56670;SDS011;42545;50.054;8.306;2022-08-16T10:04:48;5.40;;;4.50;;
56670;SDS011;42545;50.054;8.306;2022-08-16T10:07:17;5.57;;;4.70;;
56670;SDS011;42545;50.054;8.306;2022-08-16T10:09:44;5.88;;;4.25;;
56670;SDS011;42545;50.054;8.306;2022-08-16T10:12:14;5.10;;;4.07;;
56670;SDS011;42545;50.054;8.306;2022-08-16T10:15:00;5.00;;;4.13;;
56670;SDS011;42545;50.054;8.306;2022-08-16T10:17:27;4.13;;;3.72;;
56670;SDS011;42545;50.054;8.306;2022-08-16T10:19:54;4.38;;;3.80;;
56670;SDS011;42545;50.054;8.306;2022-08-16T10:22:21;5.35;;;3.80;;
56670;SDS011;42545;50.054;8.306;2022-08-16T10:24:48;6.15;;;3.95;;
56670;SDS011;42545;50.054;8.306;2022-08-16T10:27:16;4.40;;;3.55;;
56670;SDS011;42545;50.054;8.306;2022-08-16T10:32:11;4.97;;;3.80;;
56670;SDS011;42545;50.054;8.306;2022-08-16T10:34:38;4.07;;;3.67;;
56670;SDS011;42545;50.054;8.306;2022-08-16T10:37:05;4.13;;;3.72;;
56670;SDS011;42545;50.054;8.306;2022-08-16T10:39:32;4.50;;;3.70;;
56670;SDS011;42545;50.054;8.306;2022-08-16T10:41:59;4.45;;;4.05;;
56670;SDS011;42545;50.054;8.306;2022-08-16T10:44:27;5.00;;;4.15;;
56670;SDS011;42545;50.054;8.306;2022-08-16T10:46:54;7.25;;;5.07;;
56670;SDS011;42545;50.054;8.306;2022-08-16T10:49:22;4.07;;;3.67;;
56670;SDS011;42545;50.054;8.306;2022-08-16T10:51:48;4.30;;;3.90;;
56670;SDS011;42545;50.054;8.306;2022-08-16T10:54:18;4.38;;;3.40;;
56670;SDS011;42545;50.054;8.306;2022-08-16T10:56:44;4.97;;;3.70;;
56670;SDS011;42545;50.054;8.306;2022-08-16T10:59:11;5.07;;;3.80;;
56670;SDS011;42545;50.054;8.306;2022-08-16T11:01:46;3.58;;;3.28;;
56670;SDS011;42545;50.054;8.306;2022-08-16T11:04:15;3.53;;;3.22;;
56670;SDS011;42545;50.054;8.306;2022-08-16T11:09:19;3.92;;;3.35;;
56670;SDS011;42545;50.054;8.306;2022-08-16T11:11:49;5.72;;;3.60;;
56670;SDS011;42545;50.054;8.306;2022-08-16T11:14:16;4.22;;;3.67;;
56670;SDS011;42545;50.054;8.306;2022-08-16T11:16:45;3.60;;;3.28;;
56670;SDS011;42545;50.054;8.306;2022-08-16T11:19:14;3.13;;;2.83;;
56670;SDS011;42545;50.054;8.306;2022-08-16T11:21:41;3.47;;;3.10;;
56670;SDS011;42545;50.054;8.306;2022-08-16T11:24:09;4.82;;;3.42;;
56670;SDS011;42545;50.054;8.306;2022-08-16T11:26:38;9.23;;;3.85;;
56670;SDS011;42545;50.054;8.306;2022-08-16T11:29:06;6.07;;;3.92;;
56670;SDS011;42545;50.054;8.306;2022-08-16T11:31:35;3.42;;;3.13;;
56670;SDS011;42545;50.054;8.306;2022-08-16T11:34:04;3.33;;;3.00;;
56670;SDS011;42545;50.054;8.306;2022-08-16T11:36:30;2.95;;;2.53;;
56670;SDS011;42545;50.054;8.306;2022-08-16T11:38:57;4.15;;;3.75;;
56670;SDS011;42545;50.054;8.306;2022-08-16T11:41:25;4.47;;;3.67;;
56670;SDS011;42545;50.054;8.306;2022-08-16T11:43:52;4.97;;;3.90;;
56670;SDS011;42545;50.054;8.306;2022-08-16T11:46:24;6.03;;;4.10;;
56670;SDS011;42545;50.054;8.306;2022-08-16T11:48:52;4.65;;;3.50;;
56670;SDS011;42545;50.054;8.306;2022-08-16T11:51:21;4.72;;;3.97;;
56670;SDS011;42545;50.054;8.306;2022-08-16T11:53:50;4.25;;;3.22;;
56670;SDS011;42545;50.054;8.306;2022-08-16T11:56:17;5.10;;;3.67;;
56670;SDS011;42545;50.054;8.306;2022-08-16T11:58:44;4.63;;;3.70;;
56670;SDS011;42545;50.054;8.306;2022-08-16T12:01:10;3.63;;;3.30;;
56670;SDS011;42545;50.054;8.306;2022-08-16T12:03:39;3.40;;;3.08;;
56670;SDS011;42545;50.054;8.306;2022-08-16T12:06:08;3.60;;;2.90;;
56670;SDS011;42545;50.054;8.306;2022-08-16T12:08:42;4.22;;;3.13;;
56670;SDS011;42545;50.054;8.306;2022-08-16T12:11:11;4.30;;;3.42;;
56670;SDS011;42545;50.054;8.306;2022-08-16T12:13:39;3.42;;;3.08;;
56670;SDS011;42545;50.054;8.306;2022-08-16T12:16:06;4.80;;;3.33;;
56670;SDS011;42545;50.054;8.306;2022-08-16T12:18:39;3.00;;;2.70;;
56670;SDS011;42545;50.054;8.306;2022-08-16T12:21:06;2.88;;;2.67;;
56670;SDS011;42545;50.054;8.306;2022-08-16T12:23:33;3.10;;;2.80;;
56670;SDS011;42545;50.054;8.306;2022-08-16T12:26:02;3.67;;;3.08;;
56670;SDS011;42545;50.054;8.306;2022-08-16T12:28:29;4.78;;;3.25;;
56670;SDS011;42545;50.054;8.306;2022-08-16T12:30:57;3.22;;;2.92;;
56670;SDS011;42545;50.054;8.306;2022-08-16T12:33:23;3.45;;;2.55;;
56670;SDS011;42545;50.054;8.306;2022-08-16T12:35:50;3.10;;;2.90;;
56670;SDS011;42545;50.054;8.306;2022-08-16T12:38:19;4.78;;;2.58;;
56670;SDS011;42545;50.054;8.306;2022-08-16T12:40:48;4.00;;;3.25;;
56670;SDS011;42545;50.054;8.306;2022-08-16T12:43:18;3.47;;;2.80;;
56670;SDS011;42545;50.054;8.306;2022-08-16T12:45:47;4.38;;;3.33;;
56670;SDS011;42545;50.054;8.306;2022-08-16T12:48:17;3.53;;;2.90;;
56670;SDS011;42545;50.054;8.306;2022-08-16T12:51:04;3.53;;;2.88;;
56670;SDS011;42545;50.054;8.306;2022-08-16T12:53:32;4.63;;;3.13;;
56670;SDS011;42545;50.054;8.306;2022-08-16T12:56:00;4.00;;;3.45;;
56670;SDS011;42545;50.054;8.306;2022-08-16T12:58:34;2.97;;;2.75;;
56670;SDS011;42545;50.054;8.306;2022-08-16T13:01:01;2.90;;;2.70;;
56670;SDS011;42545;50.054;8.306;2022-08-16T13:03:30;2.90;;;2.63;;
56670;SDS011;42545;50.054;8.306;2022-08-16T13:06:05;3.33;;;2.53;;
56670;SDS011;42545;50.054;8.306;2022-08-16T13:11:05;4.38;;;2.80;;
56670;SDS011;42545;50.054;8.306;2022-08-16T13:13:37;2.63;;;2.03;;
56670;SDS011;42545;50.054;8.306;2022-08-16T13:16:04;2.67;;;2.47;;
56670;SDS011;42545;50.054;8.306;2022-08-16T13:18:32;2.40;;;2.20;;
56670;SDS011;42545;50.054;8.306;2022-08-16T13:21:00;4.75;;;3.03;;
56670;SDS011;42545;50.054;8.306;2022-08-16T13:23:27;4.43;;;3.17;;
56670;SDS011;42545;50.054;8.306;2022-08-16T13:29:18;4.05;;;3.00;;
56670;SDS011;42545;50.054;8.306;2022-08-16T13:31:46;3.50;;;3.20;;
56670;SDS011;42545;50.054;8.306;2022-08-16T13:34:17;3.20;;;2.90;;
56670;SDS011;42545;50.054;8.306;2022-08-16T13:36:47;3.95;;;3.22;;
56670;SDS011;42545;50.054;8.306;2022-08-16T13:39:15;3.20;;;2.78;;
56670;SDS011;42545;50.054;8.306;2022-08-16T13:41:44;2.42;;;2.20;;
56670;SDS011;42545;50.054;8.306;2022-08-16T13:44:11;2.65;;;2.45;;
56670;SDS011;42545;50.054;8.306;2022-08-16T13:46:39;3.17;;;2.90;;
56670;SDS011;42545;50.054;8.306;2022-08-16T13:49:09;2.80;;;2.60;;
56670;SDS011;42545;50.054;8.306;2022-08-16T13:51:36;4.20;;;3.20;;
56670;SDS011;42545;50.054;8.306;2022-08-16T13:54:04;3.60;;;2.85;;
56670;SDS011;42545;50.054;8.306;2022-08-16T13:56:31;3.80;;;2.85;;
56670;SDS011;42545;50.054;8.306;2022-08-16T13:59:01;3.38;;;2.67;;
56670;SDS011;42545;50.054;8.306;2022-08-16T14:01:29;3.97;;;3.40;;
56670;SDS011;42545;50.054;8.306;2022-08-16T14:03:57;3.25;;;2.95;;
56670;SDS011;42545;50.054;8.306;2022-08-16T14:08:52;4.30;;;3.38;;
56670;SDS011;42545;50.054;8.306;2022-08-16T14:11:19;2.80;;;2.60;;
56670;SDS011;42545;50.054;8.306;2022-08-16T14:13:46;3.88;;;3.17;;
56670;SDS011;42545;50.054;8.306;2022-08-16T14:16:13;3.20;;;2.83;;
56670;SDS011;42545;50.054;8.306;2022-08-16T14:18:40;3.75;;;2.90;;
56670;SDS011;42545;50.054;8.306;2022-08-16T14:21:11;3.03;;;2.67;;
56670;SDS011;42545;50.054;8.306;2022-08-16T14:23:38;3.45;;;3.10;;
56670;SDS011;42545;50.054;8.306;2022-08-16T14:26:05;3.35;;;2.80;;
56670;SDS011;42545;50.054;8.306;2022-08-16T14:28:33;3.50;;;3.20;;
56670;SDS011;42545;50.054;8.306;2022-08-16T14:30:59;5.10;;;2.80;;
56670;SDS011;42545;50.054;8.306;2022-08-16T14:33:26;2.83;;;2.55;;
56670;SDS011;42545;50.054;8.306;2022-08-16T14:35:53;2.67;;;2.47;;
56670;SDS011;42545;50.054;8.306;2022-08-16T14:38:21;3.22;;;2.38;;
56670;SDS011;42545;50.054;8.306;2022-08-16T14:40:48;2.97;;;2.67;;
56670;SDS011;42545;50.054;8.306;2022-08-16T14:43:15;3.55;;;2.50;;
56670;SDS011;42545;50.054;8.306;2022-08-16T14:45:42;3.00;;;2.30;;
56670;SDS011;42545;50.054;8.306;2022-08-16T14:48:09;3.33;;;2.50;;
56670;SDS011;42545;50.054;8.306;2022-08-16T14:50:36;2.33;;;2.10;;
56670;SDS011;42545;50.054;8.306;2022-08-16T14:53:04;2.47;;;2.28;;
56670;SDS011;42545;50.054;8.306;2022-08-16T14:55:35;3.63;;;2.50;;
56670;SDS011;42545;50.054;8.306;2022-08-16T14:58:04;2.85;;;2.47;;
56670;SDS011;42545;50.054;8.306;2022-08-16T15:00:31;4.13;;;2.60;;
56670;SDS011;42545;50.054;8.306;2022-08-16T15:02:59;5.78;;;3.38;;
56670;SDS011;42545;50.054;8.306;2022-08-16T15:05:28;2.95;;;2.35;;
56670;SDS011;42545;50.054;8.306;2022-08-16T15:07:55;3.33;;;2.70;;
56670;SDS011;42545;50.054;8.306;2022-08-16T15:10:23;4.53;;;2.80;;
56670;SDS011;42545;50.054;8.306;2022-08-16T15:12:54;2.70;;;2.50;;
56670;SDS011;42545;50.054;8.306;2022-08-16T15:15:23;2.70;;;2.50;;
56670;SDS011;42545;50.054;8.306;2022-08-16T15:17:52;2.77;;;2.47;;